createdAt,value
2023-02-16T00:00:08.121Z,8.55
2023-02-16T00:02:11.668Z,8.42
2023-02-16T00:04:19.228Z,8.43
2023-02-16T00:06:22.134Z,8.46
2023-02-16T00:08:25.229Z,8.44
2023-02-16T00:10:36.857Z,8.54
2023-02-16T00:12:58.622Z,8.46
2023-02-16T00:15:01.431Z,8.45
2023-02-16T00:17:04.772Z,8.44
2023-02-16T00:19:17.730Z,8.37
2023-02-16T00:21:21.025Z,8.11
2023-02-16T00:23:23.826Z,8.21
2023-02-16T00:25:26.701Z,8.15
2023-02-16T00:27:29.617Z,8.06
2023-02-16T00:29:35.661Z,8.10
2023-02-16T00:31:38.529Z,8.05
2023-02-16T00:33:41.367Z,8.01
2023-02-16T00:35:44.661Z,8.01
2023-02-16T00:37:48.199Z,7.76
2023-02-16T00:39:51.037Z,7.96
2023-02-16T00:41:54.701Z,7.86
2023-02-16T00:43:59.030Z,7.88
2023-02-16T00:46:03.337Z,7.97
2023-02-16T00:48:06.872Z,7.90
2023-02-16T00:50:16.660Z,8.06
2023-02-16T00:52:36.182Z,8.01
2023-02-16T00:54:40.858Z,7.96
2023-02-16T00:56:45.199Z,7.88
2023-02-16T00:58:50.147Z,7.95
2023-02-16T01:00:54.873Z,8.12
2023-02-16T01:03:04.829Z,8.01
2023-02-16T01:05:08.162Z,8.04
2023-02-16T01:07:30.335Z,8.03
2023-02-16T01:09:50.622Z,8.00
2023-02-16T01:11:53.474Z,8.03
2023-02-16T01:13:57.426Z,7.99
2023-02-16T01:16:00.437Z,8.02
2023-02-16T01:18:07.199Z,7.93
2023-02-16T01:20:15.510Z,7.90
2023-02-16T01:22:18.364Z,7.86
2023-02-16T01:24:21.248Z,7.71
2023-02-16T01:26:24.289Z,7.75
2023-02-16T01:28:27.766Z,7.76
2023-02-16T01:30:30.769Z,7.55
2023-02-16T01:32:33.678Z,7.65
2023-02-16T01:34:38.625Z,7.65
2023-02-16T01:36:43.332Z,7.41
2023-02-16T01:38:46.249Z,7.52
2023-02-16T01:40:58.492Z,7.50
2023-02-16T01:43:05.338Z,7.54
2023-02-16T01:45:12.961Z,7.47
2023-02-16T01:47:25.645Z,7.42
2023-02-16T01:49:29.007Z,7.52
2023-02-16T01:51:37.249Z,7.44
2023-02-16T01:53:44.280Z,7.41
2023-02-16T01:55:49.454Z,7.54
2023-02-16T01:57:56.227Z,7.56
2023-02-16T02:00:12.393Z,7.26
2023-02-16T02:02:19.364Z,7.45
2023-02-16T02:04:44.023Z,7.21
2023-02-16T02:06:48.350Z,7.19
2023-02-16T02:08:57.795Z,7.17
2023-02-16T02:11:08.387Z,7.21
2023-02-16T02:13:16.997Z,7.25
2023-02-16T02:15:26.523Z,7.28
2023-02-16T02:17:30.528Z,7.17
2023-02-16T02:19:42.698Z,7.23
2023-02-16T02:22:17.786Z,7.11
2023-02-16T02:24:38.745Z,7.26
2023-02-16T02:27:03.778Z,7.16
2023-02-16T02:29:35.905Z,7.20
2023-02-16T02:31:49.764Z,7.20
2023-02-16T02:34:00.325Z,7.19
2023-02-16T02:36:13.775Z,7.21
2023-02-16T02:38:19.953Z,7.12
2023-02-16T02:40:31.946Z,7.23
2023-02-16T02:42:41.700Z,7.28
2023-02-16T02:44:48.543Z,7.28
2023-02-16T02:46:52.130Z,7.28
2023-02-16T02:48:56.257Z,7.33
2023-02-16T02:51:17.529Z,7.29
2023-02-16T02:53:20.564Z,7.34
2023-02-16T02:55:41.406Z,7.22
2023-02-16T02:58:06.259Z,7.25
2023-02-16T03:00:29.240Z,7.22
2023-02-16T03:02:35.192Z,7.23
2023-02-16T03:04:38.452Z,7.19
2023-02-16T03:06:43.808Z,7.12
2023-02-16T03:08:49.793Z,7.12
2023-02-16T03:11:12.544Z,7.08
2023-02-16T03:13:20.313Z,7.00
2023-02-16T03:15:25.499Z,6.97
2023-02-16T03:17:50.286Z,6.96
2023-02-16T03:20:11.207Z,7.03
2023-02-16T03:22:31.559Z,7.04
2023-02-16T03:24:52.241Z,7.04
2023-02-16T03:27:12.691Z,6.88
2023-02-16T03:29:18.216Z,7.00
2023-02-16T03:31:23.654Z,6.90
2023-02-16T03:33:27.533Z,6.86
2023-02-16T03:35:30.904Z,6.88
2023-02-16T03:37:33.988Z,6.90
2023-02-16T03:39:57.727Z,6.87
2023-02-16T03:42:00.786Z,6.84
2023-02-16T03:44:03.811Z,6.75
2023-02-16T03:46:08.149Z,6.82
2023-02-16T03:48:11.541Z,6.78
2023-02-16T03:50:14.752Z,6.83
2023-02-16T03:52:17.744Z,6.86
2023-02-16T03:54:20.637Z,6.70
2023-02-16T03:56:23.523Z,6.88
2023-02-16T03:58:26.506Z,6.72
2023-02-16T04:00:29.645Z,6.87
2023-02-16T04:02:34.025Z,6.81
2023-02-16T04:04:38.324Z,6.88
2023-02-16T04:06:41.585Z,6.88
2023-02-16T04:08:44.664Z,6.89
2023-02-16T04:10:47.725Z,6.86
2023-02-16T04:12:49.667Z,6.77
2023-02-16T04:14:52.553Z,6.73
2023-02-16T04:16:56.028Z,6.81
2023-02-16T04:19:00.284Z,6.85
2023-02-16T04:21:03.364Z,6.74
2023-02-16T04:23:06.888Z,6.76
2023-02-16T04:25:09.894Z,6.70
2023-02-16T04:27:12.823Z,6.77
2023-02-16T04:29:15.726Z,6.55
2023-02-16T04:31:18.842Z,6.68
2023-02-16T04:33:21.891Z,6.77
2023-02-16T04:35:26.368Z,6.70
2023-02-16T04:37:29.632Z,6.51
2023-02-16T04:39:32.964Z,6.64
2023-02-16T04:41:35.849Z,6.60
2023-02-16T04:43:39.121Z,6.55
2023-02-16T04:45:42.110Z,6.62
2023-02-16T04:47:45.448Z,6.65
2023-02-16T04:49:50.325Z,6.69
2023-02-16T04:51:54.879Z,6.73
2023-02-16T04:53:58.802Z,6.77
2023-02-16T04:56:02.058Z,6.74
2023-02-16T04:58:06.174Z,6.79
2023-02-16T05:00:13.546Z,6.79
2023-02-16T05:02:17.087Z,6.82
2023-02-16T05:04:22.983Z,6.81
2023-02-16T05:06:26.145Z,6.72
2023-02-16T05:08:30.996Z,6.69
2023-02-16T05:10:36.029Z,6.73
2023-02-16T05:12:57.061Z,6.77
2023-02-16T05:15:03.604Z,6.79
2023-02-16T05:17:06.878Z,6.78
2023-02-16T05:19:12.332Z,6.80
2023-02-16T05:21:35.292Z,6.70
2023-02-16T05:23:40.848Z,6.76
2023-02-16T05:25:44.792Z,6.78
2023-02-16T05:27:50.297Z,6.78
2023-02-16T05:29:53.841Z,6.71
2023-02-16T05:31:58.842Z,6.71
2023-02-16T05:34:05.499Z,6.68
2023-02-16T05:36:10.308Z,6.60
2023-02-16T05:38:14.954Z,6.55
2023-02-16T05:40:22.163Z,6.52
2023-02-16T05:42:26.034Z,6.43
2023-02-16T05:44:31.335Z,6.53
2023-02-16T05:46:36.794Z,6.42
2023-02-16T05:48:44.095Z,6.44
2023-02-16T05:50:49.490Z,6.46
2023-02-16T05:52:56.582Z,6.43
2023-02-16T05:55:05.084Z,6.53
2023-02-16T05:57:12.302Z,6.57
2023-02-16T05:59:16.103Z,6.54
2023-02-16T06:01:19.747Z,6.55
2023-02-16T06:03:23.085Z,6.60
2023-02-16T06:05:30.201Z,6.60
2023-02-16T06:07:37.019Z,6.45
2023-02-16T06:09:42.607Z,6.57
2023-02-16T06:11:47.135Z,6.57
2023-02-16T06:13:51.790Z,6.54
2023-02-16T06:15:57.013Z,6.59
2023-02-16T06:18:05.276Z,6.57
2023-02-16T06:20:11.799Z,6.54
2023-02-16T06:22:16.397Z,6.53
2023-02-16T06:24:23.814Z,6.48
2023-02-16T06:26:31.543Z,6.50
2023-02-16T06:28:34.596Z,6.53
2023-02-16T06:30:39.167Z,6.53
2023-02-16T06:32:46.948Z,6.62
2023-02-16T06:34:50.033Z,6.66
2023-02-16T06:36:53.613Z,6.64
2023-02-16T06:39:06.041Z,6.66
2023-02-16T06:41:09.372Z,6.70
2023-02-16T06:43:14.510Z,6.72
2023-02-16T06:45:19.452Z,6.60
2023-02-16T06:47:27.119Z,6.52
2023-02-16T06:49:33.033Z,6.62
2023-02-16T06:51:39.922Z,6.60
2023-02-16T06:53:47.624Z,6.71
2023-02-16T06:55:51.780Z,6.73
2023-02-16T06:57:58.373Z,6.72
2023-02-16T07:00:05.052Z,6.80
2023-02-16T07:02:08.439Z,6.86
2023-02-16T07:04:15.559Z,6.96
2023-02-16T07:06:18.930Z,6.99
2023-02-16T07:08:25.026Z,7.07
2023-02-16T07:10:43.658Z,7.16
2023-02-16T07:12:52.501Z,7.28
2023-02-16T07:14:57.329Z,7.37
2023-02-16T07:17:04.216Z,7.42
2023-02-16T07:19:07.621Z,7.47
2023-02-16T07:21:11.917Z,7.72
2023-02-16T07:23:15.596Z,7.76
2023-02-16T07:25:20.855Z,7.81
2023-02-16T07:27:27.498Z,7.83
2023-02-16T07:29:40.363Z,7.88
2023-02-16T07:31:46.649Z,7.90
2023-02-16T07:33:50.841Z,7.93
2023-02-16T07:35:54.981Z,7.93
2023-02-16T07:37:59.362Z,7.83
2023-02-16T07:40:03.464Z,8.01
2023-02-16T07:42:08.890Z,7.98
2023-02-16T07:44:12.480Z,8.03
2023-02-16T07:46:20.037Z,7.98
2023-02-16T07:52:00.266Z,7.96
2023-02-16T07:54:04.904Z,8.01
2023-02-16T07:56:08.260Z,7.86
2023-02-16T07:58:12.165Z,7.96
2023-02-16T08:00:16.691Z,7.93
2023-02-16T08:02:22.744Z,7.89
2023-02-16T08:04:26.618Z,7.96
2023-02-16T08:06:29.995Z,7.93
2023-02-16T08:08:34.774Z,8.06
2023-02-16T08:10:42.971Z,8.14
2023-02-16T08:12:48.543Z,8.14
2023-02-16T08:14:52.016Z,8.28
2023-02-16T08:16:56.701Z,8.24
2023-02-16T08:19:11.690Z,8.24
2023-02-16T08:21:16.976Z,8.08
2023-02-16T08:23:24.381Z,8.26
2023-02-16T08:25:30.846Z,8.38
2023-02-16T08:27:36.050Z,8.43
2023-02-16T08:29:41.998Z,8.43
2023-02-16T08:31:48.241Z,8.35
2023-02-16T08:33:52.888Z,8.48
2023-02-16T08:35:59.776Z,8.62
2023-02-16T08:38:06.494Z,8.77
2023-02-16T08:40:14.805Z,8.83
2023-02-16T08:42:17.825Z,8.85
2023-02-16T08:44:24.063Z,8.85
2023-02-16T08:46:30.416Z,8.84
2023-02-16T08:48:37.421Z,8.94
2023-02-16T08:50:47.244Z,8.97
2023-02-16T08:52:50.677Z,8.96
2023-02-16T08:54:54.689Z,9.13
2023-02-16T08:56:59.047Z,9.08
2023-02-16T08:59:06.150Z,9.16
2023-02-16T09:01:17.430Z,9.08
2023-02-16T09:03:25.665Z,9.29
2023-02-16T09:05:31.915Z,9.26
2023-02-16T09:07:35.252Z,9.27
2023-02-16T09:09:44.087Z,9.39
2023-02-16T09:11:52.952Z,9.33
2023-02-16T09:13:56.241Z,9.33
2023-02-16T09:16:04.990Z,9.50
2023-02-16T09:18:16.705Z,9.39
2023-02-16T09:20:21.524Z,9.52
2023-02-16T09:22:24.920Z,9.49
2023-02-16T09:24:28.926Z,9.60
2023-02-16T09:26:47.959Z,9.55
2023-02-16T09:28:55.639Z,9.78
2023-02-16T09:31:00.295Z,9.75
2023-02-16T09:33:05.151Z,9.68
2023-02-16T09:35:16.502Z,9.59
2023-02-16T09:37:20.286Z,9.79
2023-02-16T09:39:24.548Z,10.08
2023-02-16T09:41:34.405Z,10.03
2023-02-16T09:43:51.161Z,10.51
2023-02-16T09:45:59.206Z,10.67
2023-02-16T09:48:08.030Z,10.80
2023-02-16T09:50:27.634Z,11.11
2023-02-16T09:52:47.464Z,11.26
2023-02-16T09:54:58.296Z,11.60
2023-02-16T09:57:04.963Z,11.93
2023-02-16T09:59:17.807Z,11.92
2023-02-16T10:01:40.438Z,12.02
2023-02-16T10:03:57.688Z,11.85
2023-02-16T10:06:29.850Z,11.90
2023-02-16T10:08:45.614Z,12.03
2023-02-16T10:11:08.723Z,12.10
2023-02-16T10:13:19.949Z,12.12
2023-02-16T10:15:37.998Z,12.08
2023-02-16T10:17:46.480Z,12.13
2023-02-16T10:19:54.946Z,11.80
2023-02-16T10:22:07.134Z,12.21
2023-02-16T10:24:17.008Z,11.94
2023-02-16T10:26:24.576Z,12.14
2023-02-16T10:28:33.988Z,12.31
2023-02-16T10:30:37.299Z,12.36
2023-02-16T10:32:49.592Z,12.26
2023-02-16T10:34:59.298Z,12.30
2023-02-16T10:37:13.482Z,12.08
2023-02-16T10:39:20.937Z,12.12
2023-02-16T10:41:31.775Z,12.37
2023-02-16T10:43:43.317Z,12.32
2023-02-16T10:45:52.468Z,11.96
2023-02-16T10:47:57.190Z,11.64
2023-02-16T10:50:05.216Z,11.67
2023-02-16T10:52:10.575Z,11.46
2023-02-16T10:54:19.107Z,11.65
2023-02-16T10:56:40.450Z,11.51
2023-02-16T10:58:44.521Z,11.50
2023-02-16T11:00:53.956Z,11.65
2023-02-16T11:02:57.749Z,11.25
2023-02-16T11:05:04.068Z,11.53
2023-02-16T11:07:10.997Z,11.44
2023-02-16T11:09:16.825Z,11.20
2023-02-16T11:11:22.773Z,11.40
2023-02-16T11:13:29.828Z,11.39
2023-02-16T11:15:33.034Z,11.23
2023-02-16T11:17:49.722Z,11.24
2023-02-16T11:19:56.337Z,11.26
2023-02-16T11:21:59.955Z,11.25
2023-02-16T11:24:04.404Z,11.28
2023-02-16T11:26:13.916Z,11.22
2023-02-16T11:28:27.254Z,11.36
2023-02-16T11:30:34.007Z,11.38
2023-02-16T11:32:38.634Z,11.40
2023-02-16T11:34:43.681Z,11.46
2023-02-16T11:36:47.904Z,11.65
2023-02-16T11:38:59.427Z,11.47
2023-02-16T11:41:07.482Z,11.62
2023-02-16T11:43:18.573Z,11.55
2023-02-16T11:45:30.309Z,11.72
2023-02-16T11:47:36.308Z,11.74
2023-02-16T11:49:41.866Z,11.89
2023-02-16T11:51:44.731Z,11.95
2023-02-16T11:54:01.220Z,12.07
2023-02-16T11:56:15.408Z,12.29
2023-02-16T11:58:20.270Z,12.58
2023-02-16T12:00:24.490Z,12.78
2023-02-16T12:03:00.681Z,12.57
2023-02-16T12:05:14.675Z,12.57
2023-02-16T12:07:27.232Z,12.64
2023-02-16T12:09:33.802Z,12.60
2023-02-16T12:11:47.274Z,12.59
2023-02-16T12:13:55.736Z,12.61
2023-02-16T12:16:03.902Z,12.34
2023-02-16T12:18:18.614Z,12.45
2023-02-16T12:20:44.716Z,12.40
2023-02-16T12:22:49.919Z,12.54
2023-02-16T12:25:02.979Z,12.43
2023-02-16T12:27:11.512Z,12.07
2023-02-16T12:29:25.796Z,12.05
2023-02-16T12:31:37.000Z,11.99
2023-02-16T12:33:48.752Z,12.23
2023-02-16T12:36:11.377Z,12.15
2023-02-16T12:38:22.189Z,12.13
2023-02-16T12:40:30.854Z,12.12
2023-02-16T12:42:45.390Z,12.06
2023-02-16T12:44:50.962Z,12.07
2023-02-16T12:46:59.502Z,11.87
2023-02-16T12:49:06.787Z,11.98
2023-02-16T12:51:11.902Z,11.78
2023-02-16T12:53:22.373Z,11.97
2023-02-16T12:55:28.803Z,11.95
2023-02-16T12:57:33.031Z,11.88
2023-02-16T12:59:40.877Z,11.61
2023-02-16T13:01:44.932Z,11.40
2023-02-16T13:03:54.181Z,11.36
2023-02-16T13:06:06.645Z,11.37
2023-02-16T13:08:17.030Z,11.63
2023-02-16T13:10:24.247Z,11.74
2023-02-16T13:12:32.915Z,11.75
2023-02-16T13:14:42.298Z,11.70
2023-02-16T13:16:48.628Z,11.71
2023-02-16T13:18:53.069Z,11.86
2023-02-16T13:21:03.302Z,11.58
2023-02-16T13:23:25.617Z,11.69
2023-02-16T13:25:51.150Z,11.80
2023-02-16T13:28:03.069Z,11.94
2023-02-16T13:30:47.598Z,11.96
2023-02-16T13:33:14.338Z,11.94
2023-02-16T13:35:42.804Z,12.09
2023-02-16T13:38:02.235Z,12.00
2023-02-16T13:40:17.481Z,11.99
2023-02-16T13:42:35.088Z,12.00
2023-02-16T13:44:41.931Z,12.00
2023-02-16T13:46:50.294Z,11.93
2023-02-16T13:48:54.988Z,11.96
2023-02-16T13:50:59.878Z,11.82
2023-02-16T13:53:16.059Z,12.09
2023-02-16T13:55:24.342Z,12.14
2023-02-16T13:58:04.608Z,12.02
2023-02-16T14:00:28.787Z,12.25
2023-02-16T14:02:58.774Z,11.99
2023-02-16T14:05:05.257Z,12.10
2023-02-16T14:07:23.767Z,12.11
2023-02-16T14:09:48.930Z,12.15
2023-02-16T14:12:05.685Z,12.02
2023-02-16T14:14:29.558Z,12.21
2023-02-16T14:16:34.916Z,12.26
2023-02-16T14:18:44.092Z,12.16
2023-02-16T14:21:01.378Z,12.17
2023-02-16T14:23:05.096Z,12.20
2023-02-16T14:25:48.857Z,12.17
2023-02-16T14:27:54.439Z,12.16
2023-02-16T14:30:00.159Z,12.03
2023-02-16T14:32:07.717Z,12.15
2023-02-16T14:34:18.216Z,12.10
2023-02-16T14:36:26.648Z,12.13
2023-02-16T14:38:30.611Z,12.18
2023-02-16T14:40:50.093Z,12.27
2023-02-16T14:42:57.820Z,12.22
2023-02-16T14:45:22.631Z,12.32
2023-02-16T14:47:33.838Z,12.34
2023-02-16T14:50:03.782Z,12.30
2023-02-16T14:52:47.096Z,12.25
2023-02-16T14:55:10.688Z,12.18
2023-02-16T14:57:15.059Z,12.14
2023-02-16T14:59:31.838Z,12.14
2023-02-16T15:01:41.729Z,12.30
2023-02-16T15:03:48.064Z,12.16
2023-02-16T15:05:53.498Z,12.29
2023-02-16T15:08:04.344Z,12.14
2023-02-16T15:10:10.428Z,12.15
2023-02-16T15:12:24.220Z,12.12
2023-02-16T15:14:29.421Z,12.16
2023-02-16T15:16:33.605Z,12.17
2023-02-16T15:18:40.202Z,12.03
2023-02-16T15:20:46.856Z,12.20
2023-02-16T15:22:51.174Z,12.17
2023-02-16T15:25:02.005Z,12.27
2023-02-16T15:27:05.202Z,12.35
2023-02-16T15:29:28.726Z,12.43
2023-02-16T15:31:35.841Z,12.47
2023-02-16T15:33:40.192Z,12.50
2023-02-16T15:35:44.219Z,12.60
2023-02-16T15:37:47.161Z,12.56
2023-02-16T15:40:08.598Z,12.54
2023-02-16T15:42:22.758Z,12.63
2023-02-16T15:44:31.689Z,12.55
2023-02-16T15:46:37.410Z,12.56
2023-02-16T15:48:41.122Z,12.61
2023-02-16T15:50:45.246Z,12.58
2023-02-16T15:52:48.924Z,12.37
2023-02-16T15:54:52.300Z,12.48
2023-02-16T15:56:56.226Z,12.41
2023-02-16T15:59:03.022Z,12.42
2023-02-16T16:01:06.236Z,12.49
2023-02-16T16:03:10.945Z,12.38
2023-02-16T16:05:23.132Z,12.42
2023-02-16T16:07:28.536Z,12.31
2023-02-16T16:09:33.719Z,12.34
2023-02-16T16:11:38.323Z,12.28
2023-02-16T16:13:42.447Z,12.17
2023-02-16T16:15:50.459Z,12.22
2023-02-16T16:17:55.041Z,12.16
2023-02-16T16:19:58.405Z,12.14
2023-02-16T16:22:01.640Z,12.14
2023-02-16T16:24:06.438Z,12.10
2023-02-16T16:26:18.570Z,12.08
2023-02-16T16:28:35.267Z,11.99
2023-02-16T16:30:43.807Z,11.90
2023-02-16T16:32:48.745Z,11.82
2023-02-16T16:34:52.512Z,11.78
2023-02-16T16:36:58.057Z,11.79
2023-02-16T16:39:20.185Z,11.75
2023-02-16T16:41:27.845Z,11.71
2023-02-16T16:43:32.168Z,11.73
2023-02-16T16:45:37.629Z,11.62
2023-02-16T16:47:42.918Z,11.71
2023-02-16T16:49:51.571Z,11.79
2023-02-16T16:51:54.778Z,11.82
2023-02-16T16:54:00.438Z,11.84
2023-02-16T16:56:03.945Z,11.79
2023-02-16T16:58:09.197Z,11.79
2023-02-16T17:00:13.511Z,11.78
2023-02-16T17:02:17.099Z,11.77
2023-02-16T17:04:22.087Z,11.68
2023-02-16T17:06:28.992Z,11.69
2023-02-16T17:08:31.922Z,11.46
2023-02-16T17:10:36.530Z,11.53
2023-02-16T17:12:39.762Z,11.60
2023-02-16T17:14:42.826Z,11.69
2023-02-16T17:16:47.405Z,11.66
2023-02-16T17:18:50.419Z,11.61
2023-02-16T17:20:54.242Z,11.75
2023-02-16T17:23:04.507Z,11.71
2023-02-16T17:25:08.764Z,11.71
2023-02-16T17:27:12.456Z,11.78
2023-02-16T17:29:16.158Z,11.60
2023-02-16T17:31:20.440Z,11.70
2023-02-16T17:33:23.488Z,11.60
2023-02-16T17:35:26.764Z,11.62
2023-02-16T17:37:29.877Z,11.63
2023-02-16T17:39:34.901Z,11.54
2023-02-16T17:41:37.936Z,11.69
2023-02-16T17:43:41.240Z,11.61
2023-02-16T17:45:44.830Z,11.67
2023-02-16T17:47:48.146Z,11.66
2023-02-16T17:49:51.150Z,11.57
2023-02-16T17:51:54.827Z,11.56
2023-02-16T17:53:57.926Z,11.63
2023-02-16T17:56:02.473Z,11.60
2023-02-16T17:58:05.421Z,11.67
2023-02-16T18:00:09.997Z,11.65
2023-02-16T18:02:13.464Z,11.77
2023-02-16T18:04:18.577Z,11.73
2023-02-16T18:06:26.350Z,11.57
2023-02-16T18:08:30.896Z,11.64
2023-02-16T18:10:36.337Z,11.66
2023-02-16T18:12:40.680Z,11.66
2023-02-16T18:14:44.579Z,11.68
2023-02-16T18:16:52.444Z,11.62
2023-02-16T18:18:57.370Z,11.73
2023-02-16T18:21:00.598Z,11.76
2023-02-16T18:23:04.689Z,11.74
2023-02-16T18:25:08.305Z,11.64
2023-02-16T18:27:14.476Z,11.62
2023-02-16T18:29:19.166Z,11.63
2023-02-16T18:31:24.888Z,11.51
2023-02-16T18:33:28.854Z,11.62
2023-02-16T18:35:33.353Z,11.45
2023-02-16T18:37:36.849Z,11.54
2023-02-16T18:39:40.892Z,11.46
2023-02-16T18:41:43.864Z,11.39
2023-02-16T18:43:46.871Z,11.35
2023-02-16T18:45:51.803Z,11.38
2023-02-16T18:47:55.703Z,11.29
2023-02-16T18:49:58.901Z,11.23
2023-02-16T18:52:01.925Z,11.18
2023-02-16T18:54:05.319Z,11.19
2023-02-16T18:56:09.980Z,11.27
2023-02-16T18:58:15.447Z,11.19
2023-02-16T19:00:21.005Z,11.10
2023-02-16T19:02:26.016Z,11.11
2023-02-16T19:04:29.925Z,11.19
2023-02-16T19:06:33.572Z,11.19
2023-02-16T19:08:37.936Z,11.08
2023-02-16T19:10:41.101Z,11.18
2023-02-16T19:12:44.166Z,11.20
2023-02-16T19:14:47.346Z,11.26
2023-02-16T19:16:50.901Z,11.23
2023-02-16T19:18:55.452Z,11.08
2023-02-16T19:20:58.488Z,11.24
2023-02-16T19:23:01.937Z,11.21
2023-02-16T19:25:05.123Z,11.17
2023-02-16T19:27:08.210Z,10.96
2023-02-16T19:29:12.851Z,10.89
2023-02-16T19:31:19.128Z,11.04
2023-02-16T19:33:22.364Z,10.98
2023-02-16T19:35:29.197Z,10.97
2023-02-16T19:37:32.236Z,11.13
2023-02-16T19:39:38.954Z,10.93
2023-02-16T19:41:47.267Z,11.09
2023-02-16T19:43:54.110Z,10.99
2023-02-16T19:46:00.491Z,10.92
2023-02-16T19:48:08.031Z,11.01
2023-02-16T19:50:13.570Z,10.98
2023-02-16T19:54:39.287Z,10.75
2023-02-16T19:56:44.068Z,10.79
2023-02-16T19:58:48.119Z,10.81
2023-02-16T20:00:51.784Z,10.81
2023-02-16T20:02:56.651Z,10.82
2023-02-16T20:05:00.379Z,10.54
2023-02-16T20:07:05.630Z,10.47
2023-02-16T20:09:12.264Z,10.33
2023-02-16T20:11:17.386Z,10.42
2023-02-16T20:13:20.555Z,10.07
2023-02-16T20:15:24.565Z,10.36
2023-02-16T20:17:28.656Z,10.21
2023-02-16T20:19:32.693Z,10.04
2023-02-16T20:21:35.963Z,10.15
2023-02-16T20:23:40.544Z,10.10
2023-02-16T20:25:45.066Z,9.93
2023-02-16T20:27:49.760Z,9.93
2023-02-16T20:29:53.671Z,10.03
2023-02-16T20:32:00.113Z,9.97
2023-02-16T20:34:05.147Z,9.88
2023-02-16T20:36:11.637Z,9.89
2023-02-16T20:38:18.626Z,9.80
2023-02-16T20:40:36.778Z,9.82
2023-02-16T20:42:39.667Z,9.70
2023-02-16T20:44:42.551Z,9.72
2023-02-16T20:46:45.416Z,9.79
2023-02-16T20:48:50.033Z,9.72
2023-02-16T20:50:55.130Z,9.70
2023-02-16T20:52:58.028Z,9.69
2023-02-16T20:55:01.325Z,9.61
2023-02-16T20:57:07.068Z,9.73
2023-02-16T20:59:12.423Z,9.65
2023-02-16T21:01:16.723Z,9.51
2023-02-16T21:03:19.552Z,9.61
2023-02-16T21:05:23.970Z,9.69
2023-02-16T21:07:26.831Z,9.62
2023-02-16T21:09:29.662Z,9.52
2023-02-16T21:11:32.597Z,9.47
2023-02-16T21:13:38.187Z,9.61
2023-02-16T21:15:41.065Z,9.65
2023-02-16T21:17:43.943Z,9.78
2023-02-16T21:19:47.082Z,9.72
2023-02-16T21:21:49.937Z,9.76
2023-02-16T21:23:54.442Z,9.75
2023-02-16T21:25:58.981Z,9.72
2023-02-16T21:28:01.978Z,9.75
2023-02-16T21:30:07.907Z,9.73
2023-02-16T21:32:10.938Z,9.69
2023-02-16T21:34:13.831Z,9.65
2023-02-16T21:36:19.113Z,9.65
2023-02-16T21:38:21.961Z,9.67
2023-02-16T21:40:42.282Z,9.73
2023-02-16T21:42:45.135Z,9.76
2023-02-16T21:45:08.085Z,9.76
2023-02-16T21:47:31.156Z,9.79
2023-02-16T21:49:33.989Z,9.83
2023-02-16T21:51:38.992Z,9.88
2023-02-16T21:53:41.834Z,9.76
2023-02-16T21:56:02.019Z,9.78
2023-02-16T21:58:07.831Z,9.70
2023-02-16T22:00:15.882Z,9.70
2023-02-16T22:02:20.145Z,9.70
2023-02-16T22:04:23.833Z,9.66
2023-02-16T22:06:28.031Z,9.70
2023-02-16T22:08:32.154Z,9.59
2023-02-16T22:10:36.688Z,9.62
2023-02-16T22:12:39.500Z,9.54
2023-02-16T22:14:42.510Z,9.73
2023-02-16T22:16:46.595Z,9.69
2023-02-16T22:18:51.079Z,9.69
2023-02-16T22:20:53.994Z,9.72
2023-02-16T22:22:56.827Z,9.69
2023-02-16T22:24:59.722Z,9.72
2023-02-16T22:27:02.572Z,9.75
2023-02-16T22:29:06.997Z,9.81
2023-02-16T22:31:10.262Z,9.77
2023-02-16T22:33:13.163Z,9.92
2023-02-16T22:35:17.549Z,9.85
2023-02-16T22:37:20.430Z,9.91
2023-02-16T22:39:23.263Z,9.93
2023-02-16T22:41:26.677Z,9.95
2023-02-16T22:43:29.619Z,9.98
2023-02-16T22:45:32.447Z,9.83
2023-02-16T22:47:35.312Z,9.88
2023-02-16T22:49:38.202Z,10.00
2023-02-16T22:51:42.425Z,9.98
2023-02-16T22:53:45.389Z,9.89
2023-02-16T22:55:48.226Z,9.91
2023-02-16T22:57:52.151Z,9.94
2023-02-16T22:59:55.000Z,9.95
2023-02-16T23:01:57.987Z,9.88
2023-02-16T23:04:01.975Z,9.93
2023-02-16T23:06:12.843Z,9.84
2023-02-16T23:08:17.275Z,9.90
2023-02-16T23:10:20.103Z,9.92
2023-02-16T23:12:22.952Z,9.91
2023-02-16T23:14:26.640Z,10.05
2023-02-16T23:16:30.744Z,10.06
2023-02-16T23:18:33.865Z,9.98
2023-02-16T23:20:36.681Z,10.09
2023-02-16T23:22:39.814Z,10.00
2023-02-16T23:24:43.967Z,10.08
2023-02-16T23:26:47.059Z,10.02
2023-02-16T23:28:51.905Z,10.10
2023-02-16T23:30:57.840Z,10.16
2023-02-16T23:33:00.744Z,10.23
2023-02-16T23:35:03.591Z,10.15
2023-02-16T23:37:06.367Z,10.22
2023-02-16T23:39:11.950Z,10.31
2023-02-16T23:41:16.611Z,10.21
2023-02-16T23:43:19.401Z,10.26
2023-02-16T23:45:22.183Z,10.29
2023-02-16T23:47:25.042Z,10.21
2023-02-16T23:49:27.926Z,10.28
2023-02-16T23:51:30.792Z,10.28
2023-02-16T23:53:33.816Z,10.27
2023-02-16T23:55:36.745Z,10.32
2023-02-16T23:57:40.893Z,10.41
2023-02-16T23:59:44.259Z,10.38
